Accueil
METAR-TAF:

METAR-TAF

Aéroports :

Aéroport de Roberval

Roberval, Québec, Canada

latitude: 48-31N, longitude: 072-16W, altitude: 179 m

Observation

Le bulletin a été fait il y a 1 heure et 3 minutes, à 05:00 UTC
Vent 3 kt de est/nord-est
Température -19°C
Humidité 84%
Pression 1013 hPa
Visibilité: 8.0 km
Ciel couvert à une hauteur de 5500 ft
neige faible

METAR: CYRJ 200500Z 07003KT 5SM -SN OVC055 M19/M21 A2991 RMK SC8 SLP149

Heure: 01:03 (06:03 UTC)

Prévision

Le bulletin a été fait il y a 10 heures et 20 minutes, à 19:43 UTC
Prévision valable du 19 à 20 UTC au 20 à 03 UTC
Vent 5 kt de est
Visibilité: 10 km
Nuages fragmentés à une hauteur de 10000 ft
A partir de 20 à 0000 UTC
Vent 3 kt de direction variable
Visibilité: 10 km
Nuages fragmentés à une hauteur de 6000 ft

TAF: CYRJ 191943Z 1920/2003 08005KT P6SM BKN100 FM200000 VRB03KT P6SM BKN060 RMK NXT FCST WILL BE ISSUED AT 201245Z

Observations et prévisions météorologiques de plus de 4000 aéroports (messages METAR et TAF).

Les stations disponibles sont représentées par des disques jaunes et rouges sur la carte.

Passer la souris dessus pour voir le nom de la station.

Cliquer dessus pour voir les observations et prévisions météorologiques.

Pour changer de carte: cliquez sur les boutons verts avec une croix noire pour zoomer, sur le bouton vert avec un tiret pour effectuer un zoom arrière, ou sur les flèches vertes pour les cartes adjacentes.


METAR-TAF: